Time;durP1;ratioP1;P1;durP2;ratioP2;P2;SDS_P1;SDS_P2;PMS_P1;PMS_P2;Temp;Humidity;BMP_temperature;BMP_pressure;BME280_temperature;BME280_humidity;BME280_pressure;Samples;Min_cycle;Max_cycle;Signal;HPM_P1;HPM_P2
2022/06/04 00:05:14;;;;;;;5.40;4.20;;;;;;;14.28;53.35;99771.04;439851;1268;141915;-55
2022/06/04 00:15:29;;;;;;;5.50;4.60;;;;;;;14.30;53.54;99752.37;432618;1270;141972;-56
2022/06/04 00:25:35;;;;;;;4.30;3.90;;;;;;;14.29;53.91;99739.05;435851;1270;140728;-56
2022/06/04 00:35:38;;;;;;;4.60;3.50;;;;;;;14.33;53.82;99729.04;435359;1270;140883;-55
2022/06/04 00:46:16;;;;;;;6.00;4.80;;;;;;;14.35;53.88;99723.66;437004;1270;141506;-53
2022/06/04 00:56:29;;;;;;;7.00;4.20;;;;;;;14.39;54.21;99731.26;436392;1269;140352;-56
2022/06/04 01:06:50;;;;;;;4.80;4.40;;;;;;;14.37;54.24;99711.70;431538;1270;141233;-54
2022/06/04 01:17:01;;;;;;;4.80;3.70;;;;;;;14.30;54.47;99697.61;430549;1270;141052;-54
2022/06/04 01:27:13;;;;;;;4.70;4.30;;;;;;;14.25;54.51;99694.10;431119;1270;140907;-54
2022/06/04 01:37:23;;;;;;;4.20;3.60;;;;;;;14.21;54.54;99690.39;437944;1269;141568;-55
2022/06/04 01:47:28;;;;;;;5.70;3.80;;;;;;;14.21;54.64;99681.27;430614;1270;141352;-55
2022/06/04 01:57:36;;;;;;;4.20;3.30;;;;;;;14.18;54.69;99671.05;447935;1268;141009;-56
2022/06/04 02:07:45;;;;;;;4.20;3.80;;;;;;;14.11;54.88;99657.52;433389;1270;141984;-54
2022/06/04 02:17:54;;;;;;;6.50;3.40;;;;;;;14.16;55.03;99649.54;432825;1270;145318;-54
2022/06/04 02:27:58;;;;;;;3.60;3.20;;;;;;;14.36;54.94;99637.58;432382;1270;141773;-55
2022/06/04 02:38:11;;;;;;;3.80;3.20;;;;;;;14.54;54.87;99623.69;431748;1270;143321;-55
2022/06/04 02:48:18;;;;;;;4.40;3.70;;;;;;;14.80;54.53;99622.72;445897;1268;141295;-56
2022/06/04 02:58:23;;;;;;;4.10;3.70;;;;;;;15.08;54.20;99623.40;433408;1270;141857;-55
2022/06/04 03:08:28;;;;;;;4.00;3.50;;;;;;;15.39;53.86;99619.48;440561;1270;142449;-54
2022/06/04 03:18:31;;;;;;;3.90;3.30;;;;;;;15.34;53.70;99623.39;434100;1269;142651;-53
2022/06/04 03:28:34;;;;;;;4.20;3.50;;;;;;;15.25;53.92;99617.27;437201;1269;141728;-53
2022/06/04 03:38:37;;;;;;;4.10;3.60;;;;;;;15.19;54.12;99618.13;436473;1270;141014;-56
2022/06/04 03:48:41;;;;;;;4.90;3.40;;;;;;;15.23;54.12;99623.95;446545;1269;141482;-55
2022/06/04 03:58:45;;;;;;;3.80;3.40;;;;;;;15.36;54.12;99615.01;432107;1270;141078;-54
2022/06/04 04:08:48;;;;;;;4.50;3.90;;;;;;;15.61;54.01;99598.42;432912;1270;140984;-56
2022/06/04 04:18:52;;;;;;;4.80;3.90;;;;;;;16.14;53.61;99601.55;435629;1269;141035;-54
2022/06/04 04:28:55;;;;;;;5.10;4.60;;;;;;;16.97;52.74;99595.14;438555;1269;141296;-58
2022/06/04 04:38:58;;;;;;;4.90;4.50;;;;;;;17.90;51.52;99593.64;443484;1269;140785;-55
2022/06/04 04:49:02;;;;;;;4.40;3.90;;;;;;;19.53;49.47;99599.48;447899;1269;140663;-56
2022/06/04 04:59:05;;;;;;;3.30;3.10;;;;;;;20.92;47.44;99604.67;442983;1269;143209;-56
2022/06/04 05:09:09;;;;;;;6.40;3.10;;;;;;;22.72;44.32;99602.73;431654;1269;142815;-55
2022/06/04 05:19:13;;;;;;;5.70;3.10;;;;;;;23.52;42.89;99608.40;432273;1269;145938;-56
2022/06/04 05:29:16;;;;;;;5.00;3.40;;;;;;;25.92;40.55;99611.90;441015;1268;141639;-56
2022/06/04 05:39:20;;;;;;;4.70;2.90;;;;;;;29.66;36.35;99621.39;442962;1269;141550;-55
2022/06/04 05:49:24;;;;;;;5.30;2.30;;;;;;;30.81;33.23;99617.77;447721;1269;141355;-56
2022/06/04 05:59:27;;;;;;;3.40;2.70;;;;;;;28.81;32.55;99629.85;434894;1270;142357;-55
2022/06/04 06:09:30;;;;;;;4.20;2.50;;;;;;;26.52;33.77;99645.59;444672;1270;141895;-57
2022/06/04 06:19:33;;;;;;;4.50;3.10;;;;;;;24.57;35.65;99646.83;447693;1269;141617;-56
2022/06/04 06:29:38;;;;;;;7.10;3.40;;;;;;;23.70;37.92;99651.52;432778;1268;141271;-55
2022/06/04 06:39:41;;;;;;;7.80;3.60;;;;;;;22.94;39.46;99655.36;447694;1269;140432;-57
2022/06/04 06:49:44;;;;;;;6.50;3.20;;;;;;;22.47;40.79;99665.29;441691;1270;140695;-56
2022/06/04 06:59:48;;;;;;;3.50;2.90;;;;;;;22.64;40.89;99670.20;446268;1269;200531;-58
2022/06/04 07:09:52;;;;;;;5.90;3.80;;;;;;;22.77;41.27;99676.05;431087;1270;141897;-58
2022/06/04 07:19:55;;;;;;;4.50;3.30;;;;;;;22.59;42.77;99669.19;433385;1270;141531;-56
2022/06/04 07:29:59;;;;;;;7.30;4.40;;;;;;;22.26;43.29;99667.91;431237;1270;141688;-56
2022/06/04 07:40:03;;;;;;;13.50;5.10;;;;;;;22.17;43.89;99690.73;431281;1270;141278;-56
2022/06/04 07:50:08;;;;;;;7.00;4.90;;;;;;;22.10;44.58;99698.00;445685;1270;141505;-56
2022/06/04 08:00:13;;;;;;;5.30;4.90;;;;;;;21.44;45.86;99697.63;432032;1270;141619;-55
2022/06/04 08:10:16;;;;;;;9.20;5.20;;;;;;;20.95;47.10;99692.27;440280;1269;141922;-58
2022/06/04 08:20:20;;;;;;;8.90;5.40;;;;;;;20.44;48.31;99708.44;437711;1270;141452;-58
2022/06/04 08:30:24;;;;;;;5.70;4.40;;;;;;;19.93;49.79;99719.08;431254;1270;345156;-57
2022/06/04 08:40:32;;;;;;;7.70;5.10;;;;;;;19.64;50.96;99709.92;430777;1270;141763;-57
2022/06/04 08:50:36;;;;;;;8.40;6.90;;;;;;;19.39;51.81;99709.95;434322;1270;140403;-57
2022/06/04 09:00:46;;;;;;;9.40;7.30;;;;;;;18.86;53.52;99711.48;433051;1270;141406;-57
2022/06/04 09:10:53;;;;;;;8.40;7.40;;;;;;;18.31;55.96;99708.53;447122;1269;142736;-58
2022/06/04 09:20:59;;;;;;;11.20;10.00;;;;;;;17.86;58.98;99714.83;447896;1269;142376;-58
2022/06/04 09:31:15;;;;;;;11.00;9.80;;;;;;;17.76;60.83;99720.35;440274;1270;143223;-57
2022/06/04 09:41:21;;;;;;;15.40;12.80;;;;;;;17.63;62.04;99734.47;432233;1270;142151;-57
2022/06/04 09:51:26;;;;;;;12.80;11.60;;;;;;;17.55;63.29;99723.98;447848;1269;143741;-59
2022/06/04 10:01:29;;;;;;;12.60;11.40;;;;;;;17.62;63.89;99718.77;443612;1270;142986;-57
2022/06/04 10:11:33;;;;;;;12.50;11.20;;;;;;;18.14;64.12;99714.23;430790;1271;143173;-58
2022/06/04 10:21:40;;;;;;;12.40;11.30;;;;;;;18.70;64.34;99711.02;447627;1270;143493;-58
2022/06/04 10:31:52;;;;;;;6.80;5.90;;;;;;;19.36;62.72;99703.80;439731;1270;144042;-58
2022/06/04 10:42:02;;;;;;;8.80;6.20;;;;;;;19.49;60.97;99691.59;443002;1269;142307;-58
2022/06/04 10:52:19;;;;;;;6.20;5.50;;;;;;;19.63;60.28;99678.45;444932;1269;142821;-58
2022/06/04 11:02:40;;;;;;;6.50;5.80;;;;;;;20.14;59.42;99687.49;430760;1271;145639;-57
2022/06/04 11:12:48;;;;;;;6.50;6.00;;;;;;;20.48;58.95;99701.25;447727;1269;142754;-59
2022/06/04 11:23:00;;;;;;;15.30;13.90;;;;;;;20.80;58.19;99685.50;435593;1271;142055;-57
2022/06/04 11:33:17;;;;;;;8.10;7.10;;;;;;;21.28;57.49;99699.52;440619;1271;141677;-58
2022/06/04 11:43:31;;;;;;;6.40;4.70;;;;;;;21.26;55.52;99706.90;442137;1269;140576;-58
2022/06/04 11:53:46;;;;;;;8.30;7.30;;;;;;;21.59;55.45;99703.10;443499;1270;141468;-59
2022/06/04 12:03:57;;;;;;;6.30;4.70;;;;;;;22.17;53.75;99694.24;446240;1269;141356;-58
2022/06/04 12:14:10;;;;;;;4.60;4.30;;;;;;;22.69;53.32;99691.77;445490;1270;141911;-57
2022/06/04 12:24:18;;;;;;;5.20;4.50;;;;;;;23.16;52.67;99690.56;446079;1269;142563;-58
2022/06/04 12:34:27;;;;;;;3.60;3.10;;;;;;;23.54;51.22;99688.18;436776;1269;140521;-58
2022/06/04 12:44:33;;;;;;;2.90;2.70;;;;;;;23.68;50.05;99684.87;442271;1269;142985;-58
2022/06/04 12:54:56;;;;;;;4.60;3.60;;;;;;;23.75;48.20;99683.54;447799;1269;140492;-58
2022/06/04 13:05:16;;;;;;;5.60;2.90;;;;;;;23.49;47.49;99676.00;445656;1269;144379;-57
2022/06/04 13:15:30;;;;;;;3.50;3.10;;;;;;;23.50;47.25;99665.45;438485;1270;140617;-57
2022/06/04 13:25:38;;;;;;;4.30;3.70;;;;;;;23.41;46.00;99665.17;431982;1270;141645;-56
2022/06/04 13:35:45;;;;;;;4.10;3.60;;;;;;;23.15;45.62;99660.71;433744;1269;144994;-57
2022/06/04 13:45:48;;;;;;;4.70;4.30;;;;;;;22.80;46.59;99657.91;441342;1270;141567;-58
2022/06/04 13:55:55;;;;;;;3.80;2.70;;;;;;;22.61;46.06;99664.05;441414;1269;141764;-58
2022/06/04 14:05:59;;;;;;;3.20;2.90;;;;;;;22.49;44.88;99669.99;439228;1269;141479;-57
2022/06/04 14:16:18;;;;;;;4.30;3.60;;;;;;;22.44;44.80;99660.00;434259;1270;141422;-56
2022/06/04 14:26:31;;;;;;;6.00;3.30;;;;;;;22.71;44.73;99655.15;439602;1270;142300;-56
2022/06/04 14:36:34;;;;;;;3.10;2.90;;;;;;;23.17;44.63;99651.69;438409;1270;140905;-56
2022/06/04 14:46:58;;;;;;;7.10;2.50;;;;;;;23.32;43.44;99637.90;444155;1269;140805;-55
2022/06/04 14:57:34;;;;;;;3.10;2.50;;;;;;;23.52;41.11;99648.41;447744;1270;142401;-58
2022/06/04 15:08:01;;;;;;;14.50;11.40;;;;;;;23.59;40.23;99646.60;433329;1270;140893;-56
2022/06/04 15:18:16;;;;;;;4.20;2.80;;;;;;;23.63;40.08;99640.51;432184;1269;142480;-57
2022/06/04 15:38:56;;;;;;;4.30;3.90;;;;;;;23.83;38.20;99659.08;433789;1270;140916;-56
2022/06/04 15:49:15;;;;;;;6.10;5.50;;;;;;;23.93;38.04;99658.56;433323;1270;141474;-56
2022/06/04 15:59:21;;;;;;;2.80;2.20;;;;;;;23.92;37.76;99655.65;431850;1270;141857;-57
2022/06/04 16:09:27;;;;;;;2.90;2.60;;;;;;;23.75;37.85;99657.14;434359;1269;141359;-56
2022/06/04 16:19:54;;;;;;;3.00;2.60;;;;;;;23.59;38.35;99653.06;434063;1270;145548;-58
2022/06/04 16:30:20;;;;;;;3.70;2.20;;;;;;;23.65;38.42;99644.49;432086;1269;140469;-56
2022/06/04 16:50:41;;;;;;;3.60;3.00;;;;;;;23.19;39.28;99651.06;432789;1270;141277;-57
2022/06/04 17:00:54;;;;;;;4.30;2.90;;;;;;;23.05;39.22;99651.81;434081;1270;141352;-60
2022/06/04 17:11:01;;;;;;;4.40;2.90;;;;;;;23.03;38.82;99653.34;432031;1270;141868;-56
2022/06/04 17:21:16;;;;;;;4.20;2.10;;;;;;;22.82;38.08;99655.31;434871;1270;141407;-57
2022/06/04 17:31:27;;;;;;;2.10;2.00;;;;;;;22.58;38.26;99664.47;438811;1270;141383;-57
2022/06/04 17:41:35;;;;;;;2.40;2.20;;;;;;;22.20;38.15;99666.96;435395;1269;145613;-57
2022/06/04 17:51:40;;;;;;;4.70;2.40;;;;;;;21.87;38.51;99675.53;436306;1270;144397;-58
2022/06/04 18:01:44;;;;;;;5.00;2.10;;;;;;;21.59;38.59;99678.72;431962;1270;141651;-57
2022/06/04 18:11:47;;;;;;;2.30;1.90;;;;;;;21.21;38.97;99682.95;432728;1270;140908;-59
2022/06/04 18:21:50;;;;;;;6.80;3.10;;;;;;;20.80;39.53;99687.43;432909;1270;142117;-56
2022/06/04 18:31:53;;;;;;;4.40;2.10;;;;;;;20.52;40.01;99698.25;436639;1270;141624;-64
2022/06/04 18:41:57;;;;;;;3.50;2.20;;;;;;;20.24;40.69;99708.40;445667;1268;195646;-62
2022/06/04 19:02:22;;;;;;;3.60;2.20;;;;;;;19.65;43.17;99721.52;442961;1269;142986;-64
2022/06/04 19:33:09;;;;;;;4.40;3.40;;;;;;;18.97;42.97;99757.40;433441;1269;142899;-64
2022/06/04 19:43:13;;;;;;;6.90;4.10;;;;;;;18.79;43.58;99751.33;447672;1268;141748;-63
2022/06/04 20:03:38;;;;;;;7.10;4.00;;;;;;;18.66;44.80;99763.36;437993;1269;141087;-64
2022/06/04 20:13:43;;;;;;;4.60;3.70;;;;;;;18.57;45.08;99771.20;442416;1270;140969;-64
2022/06/04 20:23:48;;;;;;;5.40;4.90;;;;;;;18.45;45.34;99784.14;447915;1269;141176;-65
2022/06/04 20:33:51;;;;;;;6.40;3.80;;;;;;;18.30;45.67;99792.83;447630;1269;253419;-64
2022/06/04 20:43:56;;;;;;;5.50;4.00;;;;;;;18.14;45.98;99800.66;443576;1269;141666;-64
2022/06/04 20:54:01;;;;;;;11.20;5.00;;;;;;;17.85;46.58;99801.98;447614;1270;142549;-64
2022/06/04 21:04:05;;;;;;;8.30;4.70;;;;;;;17.56;47.24;99802.27;432033;1270;141688;-64
2022/06/04 21:14:09;;;;;;;8.40;4.10;;;;;;;17.31;48.01;99813.69;431944;1270;142093;-65
2022/06/04 21:24:12;;;;;;;6.60;4.00;;;;;;;17.06;48.71;99834.15;433503;1270;140824;-64
2022/06/04 21:44:39;;;;;;;7.00;4.10;;;;;;;16.52;50.08;99833.77;446547;1270;143469;-62
2022/06/04 21:54:43;;;;;;;6.20;3.90;;;;;;;16.44;50.63;99836.91;430728;1270;142153;-65
2022/06/04 22:04:47;;;;;;;3.90;3.50;;;;;;;16.46;50.87;99833.94;439835;1269;142749;-63
2022/06/04 22:14:51;;;;;;;4.80;3.50;;;;;;;16.51;51.17;99845.71;440519;1270;141877;-62
2022/06/04 22:24:54;;;;;;;4.10;3.50;;;;;;;16.54;51.52;99853.07;442697;1269;141126;-64
2022/06/04 22:34:57;;;;;;;5.00;3.90;;;;;;;16.47;52.12;99855.73;443227;1269;142155;-64
2022/06/04 22:45:00;;;;;;;4.30;3.90;;;;;;;16.41;52.87;99860.33;447901;1269;141350;-64
2022/06/04 22:55:05;;;;;;;4.90;4.20;;;;;;;16.24;53.71;99857.78;447669;1270;141814;-65
2022/06/04 23:05:10;;;;;;;6.50;4.70;;;;;;;16.05;54.48;99855.31;440740;1270;141793;-59
2022/06/04 23:25:42;;;;;;;5.40;4.90;;;;;;;15.67;55.98;99841.56;441740;1269;141737;-59
2022/06/04 23:35:45;;;;;;;6.10;5.50;;;;;;;15.65;56.71;99848.11;447736;1270;142195;-60
2022/06/04 23:45:50;;;;;;;6.80;6.10;;;;;;;15.61;57.20;99854.14;447912;1268;142425;-59
2022/06/04 23:56:03;;;;;;;6.40;5.80;;;;;;;15.39;57.97;99859.70;446907;1270;142328;-60
